sensor_id;sensor_type;location;lat;lon;timestamp;pressure;altitude;pressure_sealevel;temperature;humidity
74079;BME280;62437;51.544;-3.276;2023-04-06T00:01:16;100863.23;;;8.25;70.36
74079;BME280;62437;51.544;-3.276;2023-04-06T00:03:42;100861.47;;;6.87;78.06
74079;BME280;62437;51.544;-3.276;2023-04-06T00:06:08;100856.79;;;7.26;76.15
74079;BME280;62437;51.544;-3.276;2023-04-06T00:08:33;100850.72;;;8.39;66.27
74079;BME280;62437;51.544;-3.276;2023-04-06T00:10:59;100852.81;;;7.60;75.07
74079;BME280;62437;51.544;-3.276;2023-04-06T00:13:25;100846.45;;;7.35;75.50
74079;BME280;62437;51.544;-3.276;2023-04-06T00:15:50;100840.63;;;9.48;63.05
74079;BME280;62437;51.544;-3.276;2023-04-06T00:18:16;100835.93;;;8.78;68.66
74079;BME280;62437;51.544;-3.276;2023-04-06T00:20:42;100834.24;;;8.51;68.75
74079;BME280;62437;51.544;-3.276;2023-04-06T00:23:08;100839.42;;;7.75;74.53
74079;BME280;62437;51.544;-3.276;2023-04-06T00:25:34;100831.00;;;9.07;64.31
74079;BME280;62437;51.544;-3.276;2023-04-06T00:27:59;100837.13;;;7.29;75.93
74079;BME280;62437;51.544;-3.276;2023-04-06T00:30:25;100832.02;;;8.80;65.21
74079;BME280;62437;51.544;-3.276;2023-04-06T00:32:50;100837.38;;;8.36;70.45
74079;BME280;62437;51.544;-3.276;2023-04-06T00:35:16;100833.86;;;7.23;76.05
74079;BME280;62437;51.544;-3.276;2023-04-06T00:37:42;100829.67;;;8.37;71.53
74079;BME280;62437;51.544;-3.276;2023-04-06T00:40:09;100828.15;;;7.33;73.22
74079;BME280;62437;51.544;-3.276;2023-04-06T00:42:33;100829.62;;;6.28;80.45
74079;BME280;62437;51.544;-3.276;2023-04-06T00:45:00;100826.52;;;6.81;77.88
74079;BME280;62437;51.544;-3.276;2023-04-06T00:47:25;100820.20;;;8.61;66.10
74079;BME280;62437;51.544;-3.276;2023-04-06T00:49:51;100814.39;;;8.11;71.94
74079;BME280;62437;51.544;-3.276;2023-04-06T00:52:16;100811.74;;;9.11;64.59
74079;BME280;62437;51.544;-3.276;2023-04-06T00:54:42;100816.64;;;8.02;72.24
74079;BME280;62437;51.544;-3.276;2023-04-06T00:57:08;100814.61;;;8.25;66.39
74079;BME280;62437;51.544;-3.276;2023-04-06T00:59:33;100820.39;;;7.85;72.65
74079;BME280;62437;51.544;-3.276;2023-04-06T01:01:59;100812.48;;;7.48;74.31
74079;BME280;62437;51.544;-3.276;2023-04-06T01:04:25;100808.54;;;8.44;69.03
74079;BME280;62437;51.544;-3.276;2023-04-06T01:06:51;100804.91;;;9.00;64.14
74079;BME280;62437;51.544;-3.276;2023-04-06T01:09:17;100810.44;;;7.93;70.86
74079;BME280;62437;51.544;-3.276;2023-04-06T01:11:42;100815.84;;;7.11;75.55
74079;BME280;62437;51.544;-3.276;2023-04-06T01:14:08;100811.80;;;7.07;73.16
74079;BME280;62437;51.544;-3.276;2023-04-06T01:16:34;100808.38;;;8.07;70.11
74079;BME280;62437;51.544;-3.276;2023-04-06T01:18:59;100809.84;;;7.50;73.34
74079;BME280;62437;51.544;-3.276;2023-04-06T01:21:25;100802.83;;;8.52;67.45
74079;BME280;62437;51.544;-3.276;2023-04-06T01:23:50;100802.80;;;10.11;62.47
74079;BME280;62437;51.544;-3.276;2023-04-06T01:26:16;100802.99;;;8.63;67.92
74079;BME280;62437;51.544;-3.276;2023-04-06T01:28:42;100801.43;;;9.10;66.85
74079;BME280;62437;51.544;-3.276;2023-04-06T01:31:08;100798.20;;;8.64;68.30
74079;BME280;62437;51.544;-3.276;2023-04-06T01:33:33;100800.08;;;8.51;67.78
74079;BME280;62437;51.544;-3.276;2023-04-06T01:35:59;100795.35;;;8.63;68.28
74079;BME280;62437;51.544;-3.276;2023-04-06T01:38:25;100794.79;;;8.39;66.01
74079;BME280;62437;51.544;-3.276;2023-04-06T01:40:50;100795.47;;;8.09;67.90
74079;BME280;62437;51.544;-3.276;2023-04-06T01:43:16;100797.99;;;8.11;69.08
74079;BME280;62437;51.544;-3.276;2023-04-06T01:45:42;100803.20;;;6.33;78.01
74079;BME280;62437;51.544;-3.276;2023-04-06T01:48:07;100793.51;;;6.63;75.45
74079;BME280;62437;51.544;-3.276;2023-04-06T01:50:33;100792.28;;;7.62;72.37
74079;BME280;62437;51.544;-3.276;2023-04-06T01:52:59;100789.52;;;6.14;78.42
74079;BME280;62437;51.544;-3.276;2023-04-06T01:55:24;100783.26;;;7.68;72.44
74079;BME280;62437;51.544;-3.276;2023-04-06T01:57:50;100773.56;;;8.37;68.58
74079;BME280;62437;51.544;-3.276;2023-04-06T02:00:16;100772.04;;;8.24;69.06
74079;BME280;62437;51.544;-3.276;2023-04-06T02:02:41;100769.60;;;10.24;61.31
74079;BME280;62437;51.544;-3.276;2023-04-06T02:05:08;100772.45;;;7.61;71.79
74079;BME280;62437;51.544;-3.276;2023-04-06T02:07:33;100773.14;;;6.82;73.35
74079;BME280;62437;51.544;-3.276;2023-04-06T02:09:59;100755.35;;;8.68;65.78
74079;BME280;62437;51.544;-3.276;2023-04-06T02:12:25;100752.66;;;9.55;62.40
74079;BME280;62437;51.544;-3.276;2023-04-06T02:14:50;100748.73;;;10.05;62.18
74079;BME280;62437;51.544;-3.276;2023-04-06T02:17:16;100735.38;;;10.66;58.93
74079;BME280;62437;51.544;-3.276;2023-04-06T02:19:41;100733.82;;;10.19;59.71
74079;BME280;62437;51.544;-3.276;2023-04-06T02:22:07;100728.71;;;10.23;58.18
74079;BME280;62437;51.544;-3.276;2023-04-06T02:24:33;100713.64;;;10.63;56.52
74079;BME280;62437;51.544;-3.276;2023-04-06T02:26:59;100714.87;;;11.06;55.32
74079;BME280;62437;51.544;-3.276;2023-04-06T02:29:24;100711.45;;;9.41;63.54
74079;BME280;62437;51.544;-3.276;2023-04-06T02:31:50;100708.91;;;10.23;61.29
74079;BME280;62437;51.544;-3.276;2023-04-06T02:34:16;100708.11;;;9.98;60.60
74079;BME280;62437;51.544;-3.276;2023-04-06T02:36:41;100705.55;;;9.46;62.59
74079;BME280;62437;51.544;-3.276;2023-04-06T02:39:07;100701.30;;;8.17;66.32
74079;BME280;62437;51.544;-3.276;2023-04-06T02:41:33;100689.49;;;10.69;56.58
74079;BME280;62437;51.544;-3.276;2023-04-06T02:43:59;100690.35;;;8.48;66.89
74079;BME280;62437;51.544;-3.276;2023-04-06T02:46:24;100689.36;;;10.67;56.61
74079;BME280;62437;51.544;-3.276;2023-04-06T02:48:50;100696.19;;;8.33;67.31
74079;BME280;62437;51.544;-3.276;2023-04-06T02:51:16;100690.97;;;9.42;63.83
74079;BME280;62437;51.544;-3.276;2023-04-06T02:53:41;100690.88;;;9.32;62.71
74079;BME280;62437;51.544;-3.276;2023-04-06T02:56:07;100695.21;;;8.88;64.53
74079;BME280;62437;51.544;-3.276;2023-04-06T02:58:33;100690.69;;;9.56;60.77
74079;BME280;62437;51.544;-3.276;2023-04-06T03:00:58;100700.06;;;9.48;60.60
74079;BME280;62437;51.544;-3.276;2023-04-06T03:03:24;100696.74;;;9.53;62.37
74079;BME280;62437;51.544;-3.276;2023-04-06T03:05:50;100701.36;;;9.40;63.58
74079;BME280;62437;51.544;-3.276;2023-04-06T03:08:15;100697.71;;;8.34;67.60
74079;BME280;62437;51.544;-3.276;2023-04-06T03:10:41;100694.30;;;10.42;59.00
74079;BME280;62437;51.544;-3.276;2023-04-06T03:13:07;100698.48;;;9.53;60.23
74079;BME280;62437;51.544;-3.276;2023-04-06T03:15:33;100697.68;;;9.16;64.74
74079;BME280;62437;51.544;-3.276;2023-04-06T03:17:58;100690.29;;;9.91;60.25
74079;BME280;62437;51.544;-3.276;2023-04-06T03:20:24;100684.95;;;9.52;59.83
74079;BME280;62437;51.544;-3.276;2023-04-06T03:22:50;100683.31;;;7.62;71.26
74079;BME280;62437;51.544;-3.276;2023-04-06T03:25:15;100677.32;;;8.39;69.14
74079;BME280;62437;51.544;-3.276;2023-04-06T03:27:41;100677.07;;;9.32;62.49
74079;BME280;62437;51.544;-3.276;2023-04-06T03:30:07;100679.81;;;9.60;61.64
74079;BME280;62437;51.544;-3.276;2023-04-06T03:32:32;100679.05;;;8.15;68.75
74079;BME280;62437;51.544;-3.276;2023-04-06T03:34:58;100674.64;;;9.97;60.26
74079;BME280;62437;51.544;-3.276;2023-04-06T03:37:24;100673.86;;;9.57;60.14
74079;BME280;62437;51.544;-3.276;2023-04-06T03:39:49;100679.08;;;6.68;73.90
74079;BME280;62437;51.544;-3.276;2023-04-06T03:42:15;100667.41;;;8.19;68.61
74079;BME280;62437;51.544;-3.276;2023-04-06T03:44:41;100659.41;;;9.12;62.75
74079;BME280;62437;51.544;-3.276;2023-04-06T03:47:07;100652.32;;;8.98;64.05
74079;BME280;62437;51.544;-3.276;2023-04-06T03:49:32;100644.51;;;9.64;60.79
74079;BME280;62437;51.544;-3.276;2023-04-06T03:51:58;100643.90;;;8.83;66.35
74079;BME280;62437;51.544;-3.276;2023-04-06T03:54:24;100648.22;;;9.05;64.87
74079;BME280;62437;51.544;-3.276;2023-04-06T03:56:49;100655.40;;;6.94;72.29
74079;BME280;62437;51.544;-3.276;2023-04-06T03:59:15;100653.41;;;9.04;63.10
74079;BME280;62437;51.544;-3.276;2023-04-06T04:01:41;100642.93;;;9.06;64.89
74079;BME280;62437;51.544;-3.276;2023-04-06T04:04:06;100636.93;;;9.11;63.81
74079;BME280;62437;51.544;-3.276;2023-04-06T04:06:32;100635.61;;;9.20;63.62
74079;BME280;62437;51.544;-3.276;2023-04-06T04:08:58;100625.43;;;8.55;67.00
74079;BME280;62437;51.544;-3.276;2023-04-06T04:11:23;100619.47;;;8.58;67.80
74079;BME280;62437;51.544;-3.276;2023-04-06T04:13:49;100622.46;;;7.21;72.21
74079;BME280;62437;51.544;-3.276;2023-04-06T04:16:15;100613.79;;;9.30;61.77
74079;BME280;62437;51.544;-3.276;2023-04-06T04:18:41;100614.39;;;10.29;58.36
74079;BME280;62437;51.544;-3.276;2023-04-06T04:21:06;100617.39;;;9.10;63.50
74079;BME280;62437;51.544;-3.276;2023-04-06T04:23:32;100611.80;;;10.07;60.19
74079;BME280;62437;51.544;-3.276;2023-04-06T04:25:58;100615.66;;;7.33;70.26
74079;BME280;62437;51.544;-3.276;2023-04-06T04:28:23;100624.90;;;7.82;71.40
74079;BME280;62437;51.544;-3.276;2023-04-06T04:30:49;100619.75;;;9.08;63.46
74079;BME280;62437;51.544;-3.276;2023-04-06T04:33:15;100631.74;;;8.34;67.65
74079;BME280;62437;51.544;-3.276;2023-04-06T04:35:40;100616.45;;;9.78;59.95
74079;BME280;62437;51.544;-3.276;2023-04-06T04:38:06;100622.40;;;10.09;59.11
74079;BME280;62437;51.544;-3.276;2023-04-06T04:40:32;100626.66;;;9.45;62.72
74079;BME280;62437;51.544;-3.276;2023-04-06T04:42:57;100625.56;;;10.23;57.79
74079;BME280;62437;51.544;-3.276;2023-04-06T04:45:23;100629.70;;;10.25;58.04
74079;BME280;62437;51.544;-3.276;2023-04-06T04:47:49;100637.25;;;10.73;57.47
74079;BME280;62437;51.544;-3.276;2023-04-06T04:50:15;100637.39;;;10.35;57.92
74079;BME280;62437;51.544;-3.276;2023-04-06T04:52:40;100632.93;;;9.56;64.10
74079;BME280;62437;51.544;-3.276;2023-04-06T04:55:06;100630.03;;;10.17;58.87
74079;BME280;62437;51.544;-3.276;2023-04-06T04:57:31;100636.11;;;8.82;65.44
74079;BME280;62437;51.544;-3.276;2023-04-06T04:59:57;100631.80;;;8.85;62.14
74079;BME280;62437;51.544;-3.276;2023-04-06T05:02:23;100634.83;;;7.73;68.38
74079;BME280;62437;51.544;-3.276;2023-04-06T05:04:49;100638.34;;;8.18;66.63
74079;BME280;62437;51.544;-3.276;2023-04-06T05:07:14;100647.84;;;7.85;68.21
74079;BME280;62437;51.544;-3.276;2023-04-06T05:09:40;100656.48;;;8.74;62.78
74079;BME280;62437;51.544;-3.276;2023-04-06T05:12:06;100660.69;;;9.10;61.11
74079;BME280;62437;51.544;-3.276;2023-04-06T05:14:31;100671.01;;;9.03;62.17
74079;BME280;62437;51.544;-3.276;2023-04-06T05:16:57;100677.63;;;9.23;61.66
74079;BME280;62437;51.544;-3.276;2023-04-06T05:19:23;100683.88;;;8.95;63.98
74079;BME280;62437;51.544;-3.276;2023-04-06T05:21:48;100681.79;;;9.20;61.92
74079;BME280;62437;51.544;-3.276;2023-04-06T05:24:14;100686.32;;;9.22;61.73
74079;BME280;62437;51.544;-3.276;2023-04-06T05:26:40;100687.76;;;9.30;61.19
74079;BME280;62437;51.544;-3.276;2023-04-06T05:29:06;100690.33;;;8.32;64.25
74079;BME280;62437;51.544;-3.276;2023-04-06T05:31:31;100695.59;;;7.79;67.62
74079;BME280;62437;51.544;-3.276;2023-04-06T05:33:57;100704.42;;;8.36;65.10
74079;BME280;62437;51.544;-3.276;2023-04-06T05:36:23;100705.87;;;8.04;65.37
74079;BME280;62437;51.544;-3.276;2023-04-06T05:38:48;100705.32;;;8.91;62.19
74079;BME280;62437;51.544;-3.276;2023-04-06T05:41:14;100705.54;;;8.93;61.75
74079;BME280;62437;51.544;-3.276;2023-04-06T05:43:40;100701.31;;;9.02;62.16
74079;BME280;62437;51.544;-3.276;2023-04-06T05:46:05;100698.45;;;9.82;58.46
74079;BME280;62437;51.544;-3.276;2023-04-06T05:48:31;100704.51;;;9.04;61.12
74079;BME280;62437;51.544;-3.276;2023-04-06T05:50:57;100709.96;;;8.05;64.12
74079;BME280;62437;51.544;-3.276;2023-04-06T05:53:22;100706.03;;;8.67;62.35
74079;BME280;62437;51.544;-3.276;2023-04-06T05:55:48;100716.13;;;8.36;63.74
74079;BME280;62437;51.544;-3.276;2023-04-06T05:58:14;100707.77;;;8.71;62.45
74079;BME280;62437;51.544;-3.276;2023-04-06T06:00:40;100708.63;;;8.38;62.85
74079;BME280;62437;51.544;-3.276;2023-04-06T06:03:05;100715.64;;;7.85;65.45
74079;BME280;62437;51.544;-3.276;2023-04-06T06:05:31;100712.10;;;7.46;67.25
74079;BME280;62437;51.544;-3.276;2023-04-06T06:07:57;100718.74;;;7.46;67.50
74079;BME280;62437;51.544;-3.276;2023-04-06T06:10:22;100724.79;;;8.29;64.13
74079;BME280;62437;51.544;-3.276;2023-04-06T06:12:48;100722.67;;;8.19;64.11
74079;BME280;62437;51.544;-3.276;2023-04-06T06:15:14;100716.69;;;8.69;62.20
74079;BME280;62437;51.544;-3.276;2023-04-06T06:17:39;100715.41;;;9.15;62.40
74079;BME280;62437;51.544;-3.276;2023-04-06T06:20:06;100707.97;;;10.52;56.26
74079;BME280;62437;51.544;-3.276;2023-04-06T06:22:31;100717.58;;;10.25;56.51
74079;BME280;62437;51.544;-3.276;2023-04-06T06:24:56;100726.27;;;8.65;61.67
74079;BME280;62437;51.544;-3.276;2023-04-06T06:27:22;100738.82;;;8.56;62.52
74079;BME280;62437;51.544;-3.276;2023-04-06T06:29:48;100736.99;;;8.79;61.13
74079;BME280;62437;51.544;-3.276;2023-04-06T06:32:14;100738.27;;;9.25;60.68
74079;BME280;62437;51.544;-3.276;2023-04-06T06:34:39;100739.37;;;8.72;62.04
74079;BME280;62437;51.544;-3.276;2023-04-06T06:37:05;100741.92;;;8.88;61.99
74079;BME280;62437;51.544;-3.276;2023-04-06T06:39:31;100742.07;;;8.92;61.00
74079;BME280;62437;51.544;-3.276;2023-04-06T06:41:56;100740.74;;;9.77;58.44
74079;BME280;62437;51.544;-3.276;2023-04-06T06:44:22;100742.68;;;10.00;57.56
74079;BME280;62437;51.544;-3.276;2023-04-06T06:46:48;100742.28;;;10.17;56.58
74079;BME280;62437;51.544;-3.276;2023-04-06T06:49:13;100747.00;;;10.27;57.39
74079;BME280;62437;51.544;-3.276;2023-04-06T06:51:39;100751.10;;;10.37;57.49
74079;BME280;62437;51.544;-3.276;2023-04-06T06:54:05;100757.45;;;9.83;60.02
74079;BME280;62437;51.544;-3.276;2023-04-06T06:56:31;100763.98;;;7.19;69.27
74079;BME280;62437;51.544;-3.276;2023-04-06T06:58:56;100759.43;;;9.82;59.28
74079;BME280;62437;51.544;-3.276;2023-04-06T07:01:22;100760.27;;;10.07;58.14
74079;BME280;62437;51.544;-3.276;2023-04-06T07:03:48;100766.21;;;9.43;61.23
74079;BME280;62437;51.544;-3.276;2023-04-06T07:06:13;100767.32;;;9.72;59.66
74079;BME280;62437;51.544;-3.276;2023-04-06T07:08:39;100769.18;;;8.22;65.93
74079;BME280;62437;51.544;-3.276;2023-04-06T07:11:05;100771.45;;;10.15;58.73
74079;BME280;62437;51.544;-3.276;2023-04-06T07:13:30;100775.93;;;9.13;61.38
74079;BME280;62437;51.544;-3.276;2023-04-06T07:15:56;100778.59;;;9.76;59.57
74079;BME280;62437;51.544;-3.276;2023-04-06T07:18:22;100780.06;;;8.89;64.38
74079;BME280;62437;51.544;-3.276;2023-04-06T07:20:48;100781.25;;;9.00;62.85
74079;BME280;62437;51.544;-3.276;2023-04-06T07:23:13;100775.55;;;9.52;60.51
74079;BME280;62437;51.544;-3.276;2023-04-06T07:25:39;100779.78;;;8.43;64.57
74079;BME280;62437;51.544;-3.276;2023-04-06T07:28:05;100782.35;;;7.88;67.10
74079;BME280;62437;51.544;-3.276;2023-04-06T07:30:30;100782.07;;;5.64;74.47
74079;BME280;62437;51.544;-3.276;2023-04-06T07:32:56;100778.82;;;6.49;73.99
74079;BME280;62437;51.544;-3.276;2023-04-06T07:35:22;100779.26;;;8.41;64.75
74079;BME280;62437;51.544;-3.276;2023-04-06T07:37:47;100772.93;;;8.77;64.00
74079;BME280;62437;51.544;-3.276;2023-04-06T07:40:13;100776.86;;;8.02;66.24
74079;BME280;62437;51.544;-3.276;2023-04-06T07:42:39;100781.08;;;7.43;70.17
74079;BME280;62437;51.544;-3.276;2023-04-06T07:45:06;100784.05;;;7.34;71.21
74079;BME280;62437;51.544;-3.276;2023-04-06T07:47:30;100785.80;;;6.85;75.02
74079;BME280;62437;51.544;-3.276;2023-04-06T07:49:56;100784.05;;;6.83;72.90
74079;BME280;62437;51.544;-3.276;2023-04-06T07:52:22;100788.60;;;6.78;73.30
74079;BME280;62437;51.544;-3.276;2023-04-06T07:54:47;100792.34;;;6.64;74.95
74079;BME280;62437;51.544;-3.276;2023-04-06T07:57:13;100792.37;;;8.17;69.33
74079;BME280;62437;51.544;-3.276;2023-04-06T07:59:39;100795.60;;;8.62;66.49
74079;BME280;62437;51.544;-3.276;2023-04-06T08:02:05;100796.38;;;6.77;74.63
74079;BME280;62437;51.544;-3.276;2023-04-06T08:04:30;100801.53;;;7.14;73.89
74079;BME280;62437;51.544;-3.276;2023-04-06T08:06:56;100797.16;;;7.21;73.67
74079;BME280;62437;51.544;-3.276;2023-04-06T08:09:21;100798.30;;;8.17;69.63
74079;BME280;62437;51.544;-3.276;2023-04-06T08:11:47;100799.35;;;8.17;68.55
74079;BME280;62437;51.544;-3.276;2023-04-06T08:14:13;100799.79;;;8.10;70.37
74079;BME280;62437;51.544;-3.276;2023-04-06T08:16:39;100795.41;;;8.89;67.11
74079;BME280;62437;51.544;-3.276;2023-04-06T08:19:04;100792.32;;;9.80;63.84
74079;BME280;62437;51.544;-3.276;2023-04-06T08:21:30;100797.93;;;8.97;66.69
74079;BME280;62437;51.544;-3.276;2023-04-06T08:23:56;100799.36;;;8.92;68.62
74079;BME280;62437;51.544;-3.276;2023-04-06T08:26:21;100798.85;;;8.57;68.61
74079;BME280;62437;51.544;-3.276;2023-04-06T08:28:47;100808.24;;;7.72;72.06
74079;BME280;62437;51.544;-3.276;2023-04-06T08:31:13;100793.63;;;8.80;66.20
74079;BME280;62437;51.544;-3.276;2023-04-06T08:33:38;100799.91;;;7.27;72.64
74079;BME280;62437;51.544;-3.276;2023-04-06T08:36:08;100801.43;;;8.08;68.78
74079;BME280;62437;51.544;-3.276;2023-04-06T08:38:30;100805.32;;;7.95;68.91
74079;BME280;62437;51.544;-3.276;2023-04-06T08:40:56;100808.98;;;7.29;67.56
74079;BME280;62437;51.544;-3.276;2023-04-06T08:43:22;100796.19;;;10.18;63.04
74079;BME280;62437;51.544;-3.276;2023-04-06T08:45:47;100804.32;;;7.59;68.73
74079;BME280;62437;51.544;-3.276;2023-04-06T08:48:13;100801.33;;;6.97;70.66
74079;BME280;62437;51.544;-3.276;2023-04-06T08:50:39;100804.89;;;7.88;70.95
74079;BME280;62437;51.544;-3.276;2023-04-06T08:53:06;100801.84;;;7.21;74.51
74079;BME280;62437;51.544;-3.276;2023-04-06T08:55:30;100798.91;;;8.48;70.01
74079;BME280;62437;51.544;-3.276;2023-04-06T08:57:55;100805.60;;;7.74;68.51
74079;BME280;62437;51.544;-3.276;2023-04-06T09:00:21;100801.02;;;9.39;67.51
74079;BME280;62437;51.544;-3.276;2023-04-06T09:02:48;100806.79;;;8.05;68.06
74079;BME280;62437;51.544;-3.276;2023-04-06T09:05:13;100806.07;;;7.92;70.33
74079;BME280;62437;51.544;-3.276;2023-04-06T09:07:38;100818.29;;;7.73;72.10
74079;BME280;62437;51.544;-3.276;2023-04-06T09:10:04;100811.27;;;8.11;69.72
74079;BME280;62437;51.544;-3.276;2023-04-06T09:12:31;100819.09;;;9.27;69.46
74079;BME280;62437;51.544;-3.276;2023-04-06T09:14:55;100817.88;;;8.52;69.59
74079;BME280;62437;51.544;-3.276;2023-04-06T09:17:22;100818.89;;;8.79;70.32
74079;BME280;62437;51.544;-3.276;2023-04-06T09:19:47;100822.91;;;9.51;68.23
74079;BME280;62437;51.544;-3.276;2023-04-06T09:22:12;100824.39;;;7.55;70.53
74079;BME280;62437;51.544;-3.276;2023-04-06T09:24:44;100819.38;;;8.64;67.61
74079;BME280;62437;51.544;-3.276;2023-04-06T09:27:03;100816.80;;;9.61;66.38
74079;BME280;62437;51.544;-3.276;2023-04-06T09:29:29;100822.20;;;8.05;67.14
74079;BME280;62437;51.544;-3.276;2023-04-06T09:32:03;100824.89;;;7.84;70.52
74079;BME280;62437;51.544;-3.276;2023-04-06T09:34:22;100817.19;;;8.64;69.93
74079;BME280;62437;51.544;-3.276;2023-04-06T09:36:46;100818.79;;;8.10;68.87
74079;BME280;62437;51.544;-3.276;2023-04-06T09:39:13;100816.86;;;9.07;67.31
74079;BME280;62437;51.544;-3.276;2023-04-06T09:41:37;100820.62;;;9.15;68.14
74079;BME280;62437;51.544;-3.276;2023-04-06T09:44:04;100823.20;;;9.52;66.12
74079;BME280;62437;51.544;-3.276;2023-04-06T09:46:31;100844.17;;;8.14;70.07
74079;BME280;62437;51.544;-3.276;2023-04-06T09:48:54;100867.75;;;7.48;74.11
74079;BME280;62437;51.544;-3.276;2023-04-06T09:51:21;100868.44;;;7.16;72.67
74079;BME280;62437;51.544;-3.276;2023-04-06T09:53:50;100853.20;;;7.41;70.77
74079;BME280;62437;51.544;-3.276;2023-04-06T09:56:15;100859.80;;;6.72;74.76
74079;BME280;62437;51.544;-3.276;2023-04-06T09:58:39;100865.88;;;6.21;77.53
74079;BME280;62437;51.544;-3.276;2023-04-06T10:01:07;100860.57;;;8.60;71.25
74079;BME280;62437;51.544;-3.276;2023-04-06T10:03:41;100863.32;;;6.89;76.19
74079;BME280;62437;51.544;-3.276;2023-04-06T10:05:55;100861.43;;;9.52;68.49
74079;BME280;62437;51.544;-3.276;2023-04-06T10:08:21;100870.72;;;7.52;71.83
74079;BME280;62437;51.544;-3.276;2023-04-06T10:10:46;100871.79;;;7.30;74.26
74079;BME280;62437;51.544;-3.276;2023-04-06T10:13:11;100870.70;;;7.14;74.72
74079;BME280;62437;51.544;-3.276;2023-04-06T10:15:38;100869.39;;;8.40;73.51
74079;BME280;62437;51.544;-3.276;2023-04-06T10:18:03;100869.59;;;8.00;72.39
74079;BME280;62437;51.544;-3.276;2023-04-06T10:20:34;100871.31;;;8.51;74.24
74079;BME280;62437;51.544;-3.276;2023-04-06T10:22:57;100869.67;;;8.36;73.07
74079;BME280;62437;51.544;-3.276;2023-04-06T10:25:27;100868.80;;;8.19;73.53
74079;BME280;62437;51.544;-3.276;2023-04-06T10:27:45;100869.71;;;8.26;72.48
74079;BME280;62437;51.544;-3.276;2023-04-06T10:30:11;100863.77;;;7.59;70.35
74079;BME280;62437;51.544;-3.276;2023-04-06T10:32:37;100871.90;;;7.41;76.61
74079;BME280;62437;51.544;-3.276;2023-04-06T10:35:07;100874.47;;;8.10;69.37
74079;BME280;62437;51.544;-3.276;2023-04-06T10:37:28;100874.13;;;8.84;71.75
74079;BME280;62437;51.544;-3.276;2023-04-06T10:39:53;100874.63;;;8.73;68.20
74079;BME280;62437;51.544;-3.276;2023-04-06T10:42:24;100877.84;;;8.82;70.83
74079;BME280;62437;51.544;-3.276;2023-04-06T10:44:45;100880.93;;;8.12;67.45
74079;BME280;62437;51.544;-3.276;2023-04-06T10:47:16;100873.79;;;9.20;68.53
74079;BME280;62437;51.544;-3.276;2023-04-06T10:49:36;100874.34;;;8.68;68.76
74079;BME280;62437;51.544;-3.276;2023-04-06T10:52:02;100877.27;;;8.96;69.73
74079;BME280;62437;51.544;-3.276;2023-04-06T10:54:28;100871.73;;;9.13;68.30
74079;BME280;62437;51.544;-3.276;2023-04-06T10:56:53;100881.31;;;7.98;73.14
74079;BME280;62437;51.544;-3.276;2023-04-06T10:59:19;100880.84;;;8.87;67.86
74079;BME280;62437;51.544;-3.276;2023-04-06T11:01:44;100873.48;;;8.97;66.61
74079;BME280;62437;51.544;-3.276;2023-04-06T11:04:10;100888.16;;;7.86;68.18
74079;BME280;62437;51.544;-3.276;2023-04-06T11:06:35;100884.17;;;8.40;67.79
74079;BME280;62437;51.544;-3.276;2023-04-06T11:09:01;100887.29;;;8.48;69.41
74079;BME280;62437;51.544;-3.276;2023-04-06T11:11:27;100890.04;;;8.79;65.51
74079;BME280;62437;51.544;-3.276;2023-04-06T11:13:53;100885.29;;;8.89;65.04
74079;BME280;62437;51.544;-3.276;2023-04-06T11:16:19;100889.86;;;9.90;68.02
74079;BME280;62437;51.544;-3.276;2023-04-06T11:18:51;100885.92;;;9.27;64.35
74079;BME280;62437;51.544;-3.276;2023-04-06T11:21:09;100882.88;;;9.33;62.40
74079;BME280;62437;51.544;-3.276;2023-04-06T11:23:35;100880.66;;;9.90;65.95
74079;BME280;62437;51.544;-3.276;2023-04-06T11:26:01;100881.40;;;10.27;62.57
74079;BME280;62437;51.544;-3.276;2023-04-06T11:28:26;100883.70;;;10.86;64.81
74079;BME280;62437;51.544;-3.276;2023-04-06T11:30:52;100888.15;;;9.84;67.05
74079;BME280;62437;51.544;-3.276;2023-04-06T11:33:21;100892.21;;;9.60;65.26
74079;BME280;62437;51.544;-3.276;2023-04-06T11:35:43;100888.46;;;9.42;65.33
74079;BME280;62437;51.544;-3.276;2023-04-06T11:38:09;100901.05;;;8.58;66.15
74079;BME280;62437;51.544;-3.276;2023-04-06T11:40:34;100906.42;;;9.27;70.52
74079;BME280;62437;51.544;-3.276;2023-04-06T11:43:00;100918.38;;;7.85;69.41
74079;BME280;62437;51.544;-3.276;2023-04-06T11:45:26;100918.95;;;7.15;70.31
74079;BME280;62437;51.544;-3.276;2023-04-06T11:47:57;100920.78;;;7.10;74.68
74079;BME280;62437;51.544;-3.276;2023-04-06T11:50:17;100930.88;;;6.39;73.24
74079;BME280;62437;51.544;-3.276;2023-04-06T11:52:43;100929.24;;;6.18;76.57
74079;BME280;62437;51.544;-3.276;2023-04-06T11:55:13;100912.85;;;7.10;76.03
74079;BME280;62437;51.544;-3.276;2023-04-06T11:57:34;100911.07;;;7.74;72.89
74079;BME280;62437;51.544;-3.276;2023-04-06T12:00:00;100909.52;;;9.33;71.94
74079;BME280;62437;51.544;-3.276;2023-04-06T12:02:25;100898.23;;;10.15;69.25
74079;BME280;62437;51.544;-3.276;2023-04-06T12:04:51;100900.24;;;10.28;68.47
74079;BME280;62437;51.544;-3.276;2023-04-06T12:07:17;100905.27;;;10.02;68.25
74079;BME280;62437;51.544;-3.276;2023-04-06T12:09:43;100908.71;;;10.20;68.25
74079;BME280;62437;51.544;-3.276;2023-04-06T12:12:08;100911.49;;;9.20;66.80
74079;BME280;62437;51.544;-3.276;2023-04-06T12:14:33;100917.35;;;9.26;67.71
74079;BME280;62437;51.544;-3.276;2023-04-06T12:16:59;100929.17;;;7.91;70.39
74079;BME280;62437;51.544;-3.276;2023-04-06T12:19:25;100944.79;;;8.85;70.53
74079;BME280;62437;51.544;-3.276;2023-04-06T12:21:51;100953.71;;;7.00;70.07
74079;BME280;62437;51.544;-3.276;2023-04-06T12:24:16;100951.48;;;6.30;75.17
74079;BME280;62437;51.544;-3.276;2023-04-06T12:26:42;100951.00;;;6.42;70.30
74079;BME280;62437;51.544;-3.276;2023-04-06T12:29:08;100951.49;;;6.46;72.39
74079;BME280;62437;51.544;-3.276;2023-04-06T12:31:35;100959.48;;;6.17;73.37
74079;BME280;62437;51.544;-3.276;2023-04-06T12:33:59;100963.61;;;6.20;72.87
74079;BME280;62437;51.544;-3.276;2023-04-06T12:36:25;100957.41;;;6.40;73.55
74079;BME280;62437;51.544;-3.276;2023-04-06T12:38:51;100956.81;;;6.86;75.55